Time;durP1;ratioP1;P1;durP2;ratioP2;P2;SDS_P1;SDS_P2;PMS_P1;PMS_P2;Temp;Humidity;BMP_temperature;BMP_pressure;BME280_temperature;BME280_humidity;BME280_pressure;Samples;Min_cycle;Max_cycle;Signal;HPM_P1;HPM_P2
2023/11/01 00:03:40;;;;;;;1.20;1.20;;;13.40;46.80;;;;;;10394186;28;20701;-71
2023/11/01 00:08:44;;;;;;;1.40;1.27;;;13.40;46.60;;;;;;10396480;28;20751;-70
2023/11/01 00:13:48;;;;;;;1.50;1.20;;;13.40;46.50;;;;;;10390729;28;20244;-70
2023/11/01 00:18:52;;;;;;;1.60;1.27;;;13.40;46.60;;;;;;10396235;28;20222;-70
2023/11/01 00:23:55;;;;;;;0.97;0.97;;;13.40;46.30;;;;;;10387670;28;20808;-71
2023/11/01 00:28:59;;;;;;;1.10;1.00;;;13.40;46.30;;;;;;10397448;28;20225;-71
2023/11/01 00:34:03;;;;;;;0.90;0.90;;;13.30;46.20;;;;;;10398556;28;20716;-71
2023/11/01 00:39:07;;;;;;;1.80;1.20;;;13.30;46.00;;;;;;10393079;28;20232;-71
2023/11/01 00:44:11;;;;;;;1.30;1.20;;;13.20;45.90;;;;;;10390568;28;20233;-70
2023/11/01 00:49:14;;;;;;;2.87;1.20;;;13.20;46.00;;;;;;10395624;28;20312;-71
2023/11/01 00:54:17;;;;;;;2.17;1.10;;;13.10;45.90;;;;;;10388515;28;20225;-71
2023/11/01 00:59:22;;;;;;;1.10;1.10;;;13.10;46.00;;;;;;10390822;28;20704;-71
2023/11/01 01:04:25;;;;;;;1.53;1.20;;;13.00;46.10;;;;;;10391463;28;20243;-71
2023/11/01 01:09:28;;;;;;;2.07;1.10;;;12.90;45.90;;;;;;10381504;28;20745;-71
2023/11/01 01:14:33;;;;;;;1.00;1.00;;;12.90;45.90;;;;;;10388088;28;20763;-70
2023/11/01 01:19:36;;;;;;;1.17;1.07;;;12.90;45.90;;;;;;10381803;28;20603;-70
2023/11/01 01:24:40;;;;;;;1.73;1.10;;;12.80;45.80;;;;;;10378022;28;20233;-71
2023/11/01 01:29:47;;;;;;;2.67;1.07;;;12.70;45.90;;;;;;10383588;28;20307;-70
2023/11/01 01:34:50;;;;;;;1.30;1.20;;;12.60;46.10;;;;;;10392013;28;20324;-70
2023/11/01 01:39:54;;;;;;;1.07;1.03;;;12.60;46.10;;;;;;10384951;28;20321;-70
2023/11/01 01:44:58;;;;;;;1.20;1.00;;;12.50;46.20;;;;;;10389002;28;20257;-70
2023/11/01 01:50:02;;;;;;;1.10;1.03;;;12.50;46.50;;;;;;10381999;28;20222;-71
2023/11/01 01:55:06;;;;;;;2.07;1.10;;;12.50;46.50;;;;;;10396872;28;20714;-70
2023/11/01 02:00:12;;;;;;;1.83;1.03;;;12.50;46.70;;;;;;10391065;28;20317;-71
2023/11/01 02:05:16;;;;;;;1.23;1.00;;;12.50;46.90;;;;;;10388145;28;20245;-70
2023/11/01 02:10:19;;;;;;;1.07;0.97;;;12.50;46.80;;;;;;10392372;28;20240;-71
2023/11/01 02:15:24;;;;;;;1.27;0.90;;;12.50;47.10;;;;;;10377307;28;20230;-70
2023/11/01 02:20:28;;;;;;;1.90;1.00;;;12.60;47.30;;;;;;10385462;28;20229;-70
2023/11/01 02:25:33;;;;;;;0.90;0.90;;;12.70;47.30;;;;;;10392887;28;20225;-71
2023/11/01 02:30:37;;;;;;;1.37;1.00;;;12.70;47.30;;;;;;10398848;28;20222;-70
2023/11/01 02:35:40;;;;;;;0.90;0.90;;;12.80;47.10;;;;;;10391265;28;20299;-70
2023/11/01 02:40:45;;;;;;;1.17;0.90;;;12.90;47.00;;;;;;10390522;28;20723;-70
2023/11/01 02:45:48;;;;;;;2.37;1.00;;;12.90;46.90;;;;;;10399634;28;20771;-70
2023/11/01 02:50:52;;;;;;;2.67;0.90;;;13.00;46.70;;;;;;10393508;28;20943;-70
2023/11/01 02:55:57;;;;;;;1.33;0.90;;;13.00;46.60;;;;;;10405093;28;20233;-71
2023/11/01 03:01:00;;;;;;;1.13;1.00;;;13.10;46.80;;;;;;10401386;28;20226;-71
2023/11/01 03:06:04;;;;;;;0.80;0.80;;;13.10;46.70;;;;;;10390023;28;20249;-71
2023/11/01 03:11:09;;;;;;;1.40;0.90;;;13.00;46.60;;;;;;10397800;28;20240;-71
2023/11/01 03:16:12;;;;;;;1.37;1.00;;;13.10;46.90;;;;;;10398790;28;20237;-71
2023/11/01 03:21:16;;;;;;;2.00;1.00;;;13.10;46.80;;;;;;10397566;28;20325;-71
2023/11/01 03:26:20;;;;;;;1.30;1.20;;;13.10;46.70;;;;;;10395848;28;20237;-71
2023/11/01 03:31:23;;;;;;;1.13;0.90;;;13.00;46.90;;;;;;10398486;28;20256;-71
2023/11/01 03:36:27;;;;;;;0.83;0.80;;;13.00;46.80;;;;;;10391493;28;20234;-71
2023/11/01 03:41:31;;;;;;;0.80;0.80;;;13.00;46.90;;;;;;10395491;28;20234;-71
2023/11/01 03:46:34;;;;;;;0.90;0.90;;;12.90;47.00;;;;;;10383071;28;20229;-71
2023/11/01 03:51:38;;;;;;;2.23;1.37;;;12.90;46.90;;;;;;10399694;28;20233;-71
2023/11/01 03:56:44;;;;;;;2.67;1.80;;;12.90;46.80;;;;;;10388643;28;20226;-71
2023/11/01 04:01:47;;;;;;;1.60;1.50;;;12.90;47.10;;;;;;10396535;28;20226;-71
2023/11/01 04:06:51;;;;;;;1.67;1.50;;;12.90;47.00;;;;;;10400173;28;20275;-71
2023/11/01 04:11:56;;;;;;;2.50;2.10;;;12.90;46.90;;;;;;10392474;28;20226;-71
2023/11/01 04:16:59;;;;;;;2.03;1.13;;;13.00;47.00;;;;;;10390882;28;20660;-71
2023/11/01 04:22:03;;;;;;;1.13;1.03;;;13.00;46.70;;;;;;10390000;28;20224;-71
2023/11/01 04:27:07;;;;;;;1.57;1.00;;;13.10;46.60;;;;;;10393067;28;20233;-71
2023/11/01 04:32:10;;;;;;;1.70;1.17;;;13.00;46.50;;;;;;10388711;28;20261;-71
2023/11/01 04:37:14;;;;;;;1.00;1.00;;;13.00;46.40;;;;;;10394803;28;20234;-71
2023/11/01 04:42:18;;;;;;;1.10;0.80;;;13.00;46.40;;;;;;10392528;28;20261;-71
2023/11/01 04:47:21;;;;;;;1.20;1.10;;;13.00;46.30;;;;;;10382758;28;20631;-71
2023/11/01 04:52:25;;;;;;;1.70;1.10;;;13.00;46.20;;;;;;10401901;28;20226;-71
2023/11/01 04:57:30;;;;;;;1.00;1.00;;;13.00;46.20;;;;;;10387344;28;20259;-71
2023/11/01 05:02:33;;;;;;;1.00;0.90;;;13.00;46.20;;;;;;10387264;28;20237;-71
2023/11/01 05:07:36;;;;;;;2.00;1.10;;;12.90;46.20;;;;;;10399488;28;20240;-71
2023/11/01 05:12:41;;;;;;;0.90;0.90;;;12.90;46.20;;;;;;10381305;28;20333;-71
2023/11/01 05:17:44;;;;;;;3.30;1.40;;;12.90;46.10;;;;;;10393267;28;20883;-71
2023/11/01 05:22:47;;;;;;;1.33;1.00;;;12.90;46.10;;;;;;10395235;28;20230;-71
2023/11/01 05:27:52;;;;;;;1.50;0.83;;;13.00;46.00;;;;;;10389658;28;20747;-71
2023/11/01 05:32:55;;;;;;;0.80;0.80;;;13.10;45.80;;;;;;10394166;28;20230;-71
2023/11/01 05:37:58;;;;;;;1.90;0.90;;;13.10;45.50;;;;;;10387452;28;20222;-71
2023/11/01 05:43:04;;;;;;;0.80;0.80;;;13.10;45.40;;;;;;10384210;28;20257;-72
2023/11/01 05:48:08;;;;;;;1.23;0.90;;;13.10;45.40;;;;;;10396000;28;20222;-71
2023/11/01 05:53:12;;;;;;;0.80;0.80;;;13.20;45.40;;;;;;10382064;28;20308;-71
2023/11/01 05:58:17;;;;;;;1.07;0.90;;;13.20;45.20;;;;;;10389193;28;20587;-71
2023/11/01 06:03:20;;;;;;;1.43;0.90;;;13.20;45.10;;;;;;10382474;28;20229;-71
2023/11/01 06:08:24;;;;;;;1.33;0.90;;;13.20;45.00;;;;;;10383203;28;20332;-71
2023/11/01 06:13:28;;;;;;;1.07;0.83;;;13.20;44.90;;;;;;10392542;28;20344;-71
2023/11/01 06:18:32;;;;;;;0.70;0.70;;;13.20;44.60;;;;;;10393406;28;20222;-71
2023/11/01 06:23:36;;;;;;;1.43;1.20;;;13.10;44.30;;;;;;10390684;28;20603;-71
2023/11/01 06:28:41;;;;;;;1.43;1.13;;;13.10;44.40;;;;;;10402136;28;20236;-71
2023/11/01 06:33:44;;;;;;;1.70;1.60;;;13.00;44.30;;;;;;10399696;28;20229;-71
2023/11/01 06:38:47;;;;;;;2.27;2.07;;;13.00;44.50;;;;;;10393660;28;20230;-71
2023/11/01 06:43:52;;;;;;;2.17;1.97;;;13.00;44.30;;;;;;10389238;28;20233;-71
2023/11/01 06:48:55;;;;;;;10.57;7.60;;;12.90;44.20;;;;;;10399891;28;20249;-71
2023/11/01 06:53:58;;;;;;;9.97;8.50;;;12.90;44.10;;;;;;10393231;28;20625;-70
2023/11/01 06:59:03;;;;;;;6.67;5.60;;;12.80;44.40;;;;;;10397732;28;20230;-71
2023/11/01 07:04:07;;;;;;;7.17;5.73;;;12.70;44.60;;;;;;10403189;28;20229;-71
2023/11/01 07:09:10;;;;;;;2.33;2.13;;;12.70;44.70;;;;;;10390127;28;20230;-71
2023/11/01 07:14:15;;;;;;;1.60;1.40;;;12.70;44.70;;;;;;10392256;28;20311;-71
2023/11/01 07:19:18;;;;;;;1.67;1.37;;;12.70;44.80;;;;;;10403490;28;20236;-71
2023/11/01 07:24:21;;;;;;;1.33;1.10;;;12.70;45.00;;;;;;10392831;28;20341;-71
2023/11/01 07:29:26;;;;;;;1.40;1.30;;;12.70;45.20;;;;;;10396746;28;20221;-71
2023/11/01 07:34:29;;;;;;;2.83;1.70;;;12.70;45.40;;;;;;10399748;28;20233;-70
2023/11/01 07:39:34;;;;;;;1.97;1.43;;;12.80;45.50;;;;;;10396018;28;20887;-70
2023/11/01 07:44:39;;;;;;;1.20;1.20;;;13.00;45.80;;;;;;10390982;28;20234;-70
2023/11/01 07:49:42;;;;;;;1.03;0.97;;;13.20;45.60;;;;;;10396511;28;20233;-70
2023/11/01 07:54:46;;;;;;;0.90;0.90;;;13.30;45.60;;;;;;10392945;28;20557;-70
2023/11/01 07:59:52;;;;;;;2.20;1.20;;;13.50;45.80;;;;;;10393940;28;20288;-69
2023/11/01 08:04:56;;;;;;;2.17;1.07;;;13.70;45.40;;;;;;10394011;28;20334;-70
2023/11/01 08:09:59;;;;;;;2.60;1.10;;;13.90;45.80;;;;;;10390764;28;20442;-70
2023/11/01 08:15:04;;;;;;;1.23;0.80;;;14.10;45.80;;;;;;10390956;28;20235;-70
2023/11/01 08:20:08;;;;;;;1.07;0.90;;;14.30;45.00;;;;;;10379977;28;20606;-70
2023/11/01 08:25:12;;;;;;;0.80;0.80;;;14.50;44.90;;;;;;10395534;28;20237;-70
2023/11/01 08:30:17;;;;;;;1.23;0.80;;;14.70;44.40;;;;;;10391750;28;20325;-70
2023/11/01 08:35:20;;;;;;;0.87;0.80;;;14.90;44.30;;;;;;10396279;28;20230;-70
2023/11/01 08:40:23;;;;;;;0.60;0.60;;;15.10;44.50;;;;;;10387358;28;20233;-70
2023/11/01 08:45:28;;;;;;;0.83;0.83;;;15.30;44.60;;;;;;10399042;28;20321;-70
2023/11/01 08:50:31;;;;;;;0.70;0.70;;;15.40;43.20;;;;;;10394992;28;20761;-70
2023/11/01 08:55:35;;;;;;;0.70;0.70;;;15.50;43.30;;;;;;10392483;28;20225;-70
2023/11/01 09:00:39;;;;;;;0.70;0.70;;;15.60;43.10;;;;;;10386945;28;20225;-70
2023/11/01 09:05:50;;;;;;;0.93;0.80;;;15.70;43.20;;;;;;10391920;28;20234;-70
2023/11/01 09:10:53;;;;;;;0.83;0.83;;;15.90;43.50;;;;;;10397313;28;20316;-69
2023/11/01 09:15:59;;;;;;;0.90;0.90;;;16.10;43.10;;;;;;10398870;28;20245;-70
2023/11/01 09:21:02;;;;;;;1.60;0.90;;;16.20;42.10;;;;;;10381931;28;20226;-70
2023/11/01 09:26:07;;;;;;;0.70;0.70;;;16.30;42.90;;;;;;10393492;28;20222;-70
2023/11/01 09:31:11;;;;;;;1.63;1.10;;;16.50;42.80;;;;;;10390076;28;20238;-70
2023/11/01 09:36:14;;;;;;;0.90;0.90;;;16.70;42.00;;;;;;10381380;28;20234;-69
2023/11/01 09:41:23;;;;;;;1.07;1.00;;;16.90;42.80;;;;;;10392642;28;20664;-70
2023/11/01 09:46:28;;;;;;;2.13;1.37;;;17.10;41.90;;;;;;10391070;28;20229;-70
2023/11/01 09:51:32;;;;;;;0.77;0.77;;;17.30;41.40;;;;;;10380738;28;20715;-69
2023/11/01 09:56:41;;;;;;;0.70;0.70;;;17.40;41.10;;;;;;10392261;28;20595;-69
2023/11/01 10:01:47;;;;;;;1.10;0.70;;;17.50;39.60;;;;;;10387116;28;20729;-69
2023/11/01 10:06:51;;;;;;;0.70;0.70;;;17.70;40.60;;;;;;10392022;28;20321;-69
2023/11/01 10:11:54;;;;;;;1.30;0.70;;;17.80;40.40;;;;;;10392752;28;20828;-70
2023/11/01 10:17:00;;;;;;;0.50;0.50;;;17.90;40.90;;;;;;10395580;28;20217;-70
2023/11/01 10:22:04;;;;;;;0.60;0.60;;;18.10;39.80;;;;;;10395330;28;20245;-70
2023/11/01 10:27:07;;;;;;;1.37;0.77;;;18.20;40.80;;;;;;10387200;28;20328;-70
2023/11/01 10:32:13;;;;;;;0.60;0.57;;;18.40;40.50;;;;;;10373805;28;20881;-70
2023/11/01 10:37:18;;;;;;;0.80;0.70;;;18.40;39.20;;;;;;10383651;28;20295;-70
2023/11/01 10:42:22;;;;;;;0.63;0.63;;;18.40;38.60;;;;;;10387039;28;20257;-70
2023/11/01 10:47:27;;;;;;;0.60;0.60;;;18.50;39.60;;;;;;10384512;28;20226;-70
2023/11/01 10:52:31;;;;;;;0.87;0.70;;;18.50;38.10;;;;;;10388583;28;20240;-70
2023/11/01 10:57:35;;;;;;;1.07;0.63;;;18.60;39.00;;;;;;10383929;28;20586;-70
2023/11/01 11:02:47;;;;;;;1.00;0.63;;;18.60;39.30;;;;;;10383997;28;20232;-70
2023/11/01 11:07:53;;;;;;;0.83;0.60;;;18.60;37.20;;;;;;10395011;28;20271;-70
2023/11/01 11:13:24;;;;;;;1.70;0.70;;;18.70;38.70;;;;;;10392645;28;20317;-70
2023/11/01 11:18:30;;;;;;;1.57;0.70;;;18.80;36.50;;;;;;10397524;28;20225;-70
2023/11/01 11:23:34;;;;;;;0.53;0.53;;;18.80;37.30;;;;;;10392131;28;20692;-70
2023/11/01 11:28:46;;;;;;;0.60;0.60;;;18.80;38.00;;;;;;10390067;28;20218;-70
2023/11/01 11:34:13;;;;;;;0.70;0.70;;;18.70;36.80;;;;;;10402400;28;20230;-70
2023/11/01 11:39:16;;;;;;;0.70;0.70;;;18.70;36.70;;;;;;10391366;28;20272;-70
2023/11/01 11:44:20;;;;;;;0.93;0.60;;;18.70;38.20;;;;;;10398128;28;20316;-70
2023/11/01 11:49:26;;;;;;;0.77;0.63;;;18.70;38.40;;;;;;10394743;28;20304;-70
2023/11/01 11:54:31;;;;;;;0.77;0.70;;;18.80;37.10;;;;;;10395960;28;20713;-70
2023/11/01 11:59:35;;;;;;;0.70;0.70;;;18.90;37.30;;;;;;10397294;28;20868;-70
2023/11/01 12:04:41;;;;;;;1.17;0.80;;;19.00;37.60;;;;;;10393102;28;20275;-70
2023/11/01 12:09:48;;;;;;;1.20;0.90;;;19.10;36.10;;;;;;10401529;28;20264;-70
2023/11/01 12:14:57;;;;;;;1.13;0.77;;;19.10;35.70;;;;;;10398932;28;20238;-70
2023/11/01 12:20:03;;;;;;;0.93;0.80;;;19.10;34.90;;;;;;10401719;28;20734;-70
2023/11/01 12:25:08;;;;;;;2.77;1.00;;;19.10;35.70;;;;;;10392738;28;20884;-70
2023/11/01 12:30:21;;;;;;;1.03;0.77;;;19.10;36.20;;;;;;10395809;28;20240;-70
2023/11/01 12:35:26;;;;;;;1.33;0.70;;;19.10;34.90;;;;;;10392077;28;20232;-70
2023/11/01 12:40:31;;;;;;;1.10;0.80;;;19.00;35.70;;;;;;10390638;28;20249;-70
2023/11/01 12:45:35;;;;;;;1.53;1.13;;;19.00;35.60;;;;;;10395863;28;20237;-70
2023/11/01 12:50:40;;;;;;;1.17;1.07;;;19.00;35.90;;;;;;10397381;28;20316;-69
2023/11/01 12:55:43;;;;;;;1.33;1.00;;;19.10;35.70;;;;;;10390991;28;20233;-70
2023/11/01 13:00:47;;;;;;;1.97;1.37;;;19.10;36.20;;;;;;10379107;28;20230;-70
2023/11/01 13:05:52;;;;;;;3.03;1.00;;;19.10;35.90;;;;;;10391734;28;20240;-70
2023/11/01 13:10:55;;;;;;;1.43;1.00;;;19.10;35.70;;;;;;10394127;28;20222;-70
2023/11/01 13:15:58;;;;;;;3.43;1.50;;;19.10;35.80;;;;;;10392737;28;20585;-70
2023/11/01 13:21:03;;;;;;;2.47;2.27;;;19.10;35.70;;;;;;10390202;28;20225;-73
2023/11/01 13:26:08;;;;;;;1.50;1.40;;;19.10;35.70;;;;;;10387998;28;20699;-70
2023/11/01 13:31:14;;;;;;;1.83;1.10;;;19.00;35.60;;;;;;10389578;28;20656;-70
2023/11/01 13:36:18;;;;;;;1.97;1.10;;;19.00;35.60;;;;;;10393095;28;20700;-70
2023/11/01 13:41:22;;;;;;;2.23;0.80;;;19.00;35.60;;;;;;10394045;28;20233;-70
2023/11/01 13:46:25;;;;;;;2.73;1.00;;;18.90;35.50;;;;;;10393273;28;20316;-70
2023/11/01 13:51:30;;;;;;;0.70;0.70;;;19.00;35.70;;;;;;10385412;28;20637;-70
2023/11/01 13:56:33;;;;;;;0.73;0.73;;;19.00;35.60;;;;;;10395223;28;20809;-70
2023/11/01 14:01:36;;;;;;;1.50;0.90;;;19.00;35.60;;;;;;10388656;28;20699;-70
2023/11/01 14:06:41;;;;;;;1.43;0.70;;;19.10;35.70;;;;;;10385433;28;20705;-70
2023/11/01 14:11:44;;;;;;;1.47;1.00;;;19.10;35.50;;;;;;10385006;28;20230;-70
2023/11/01 14:16:49;;;;;;;1.27;0.93;;;19.10;35.50;;;;;;10389837;28;20303;-70
2023/11/01 14:21:53;;;;;;;2.07;0.90;;;19.10;35.20;;;;;;10394162;28;20244;-70
2023/11/01 14:26:56;;;;;;;1.13;0.90;;;19.00;34.80;;;;;;10388375;28;20307;-70
2023/11/01 14:32:00;;;;;;;0.90;0.70;;;19.00;35.50;;;;;;10392188;28;20234;-70
2023/11/01 14:37:04;;;;;;;1.63;1.43;;;18.90;35.50;;;;;;10390036;28;20222;-70
2023/11/01 14:42:08;;;;;;;2.77;1.10;;;18.90;34.70;;;;;;10396992;28;20891;-70
2023/11/01 14:47:11;;;;;;;2.17;1.30;;;18.90;36.20;;;;;;10397792;28;20225;-70
2023/11/01 14:52:16;;;;;;;2.53;1.60;;;18.80;35.50;;;;;;10387568;28;20321;-70
2023/11/01 14:57:21;;;;;;;2.60;1.20;;;18.80;34.80;;;;;;10397111;28;20236;-70
2023/11/01 15:02:24;;;;;;;1.10;1.00;;;18.70;35.40;;;;;;10399950;28;20229;-70
2023/11/01 15:07:29;;;;;;;2.40;1.03;;;18.70;35.40;;;;;;10398275;28;20646;-70
2023/11/01 15:12:32;;;;;;;0.90;0.90;;;18.70;34.90;;;;;;10392796;28;20234;-70
2023/11/01 15:17:35;;;;;;;1.17;1.00;;;18.70;35.40;;;;;;10400436;28;20230;-70
2023/11/01 15:22:40;;;;;;;1.17;1.00;;;18.70;35.40;;;;;;10395786;28;20242;-70
2023/11/01 15:27:44;;;;;;;1.87;1.40;;;18.70;35.40;;;;;;10394043;28;20267;-70
2023/11/01 15:32:47;;;;;;;1.30;1.20;;;18.70;35.40;;;;;;10393251;28;20798;-70
2023/11/01 15:37:52;;;;;;;1.90;1.20;;;18.70;35.40;;;;;;10392829;28;20226;-70
2023/11/01 15:42:55;;;;;;;1.60;1.10;;;18.60;35.30;;;;;;10388854;28;20233;-70
2023/11/01 15:47:58;;;;;;;0.87;0.87;;;18.50;35.20;;;;;;10398727;28;20225;-70
2023/11/01 15:53:03;;;;;;;1.43;0.90;;;18.40;35.10;;;;;;10396035;28;20229;-71
2023/11/01 15:58:07;;;;;;;2.00;1.50;;;18.30;35.20;;;;;;10393233;28;20237;-70
2023/11/01 16:03:10;;;;;;;2.60;1.90;;;18.30;35.60;;;;;;10394770;28;20708;-70
2023/11/01 16:08:15;;;;;;;1.90;1.70;;;18.20;35.50;;;;;;10394077;28;20700;-70
2023/11/01 16:13:18;;;;;;;1.30;1.20;;;18.20;35.40;;;;;;10398104;28;20232;-70
2023/11/01 16:18:21;;;;;;;2.73;2.00;;;18.10;35.50;;;;;;10393813;28;23488;-70
2023/11/01 16:23:26;;;;;;;2.60;2.40;;;17.90;35.50;;;;;;10392893;28;20237;-70
2023/11/01 16:28:29;;;;;;;2.20;2.00;;;17.80;35.70;;;;;;10389090;28;20237;-70
2023/11/01 16:33:33;;;;;;;2.83;2.07;;;17.60;35.90;;;;;;10391739;28;20230;-70
2023/11/01 16:38:37;;;;;;;3.53;3.00;;;17.60;36.00;;;;;;10389049;28;20739;-70
2023/11/01 16:43:41;;;;;;;3.97;2.70;;;17.50;35.90;;;;;;10397218;28;20720;-70
2023/11/01 16:48:44;;;;;;;3.27;2.97;;;17.30;36.00;;;;;;10395319;28;20308;-70
2023/11/01 16:53:49;;;;;;;4.80;3.33;;;17.20;36.30;;;;;;10390904;28;20233;-70
2023/11/01 16:58:52;;;;;;;3.40;3.20;;;17.20;36.50;;;;;;10394230;28;20718;-70
2023/11/01 17:03:55;;;;;;;3.50;3.20;;;17.10;36.60;;;;;;10392812;28;20233;-70
2023/11/01 17:09:01;;;;;;;4.53;4.13;;;17.10;36.60;;;;;;10381905;28;20750;-70
2023/11/01 17:14:05;;;;;;;5.43;4.93;;;17.00;36.70;;;;;;10386918;28;20210;-71
2023/11/01 17:19:08;;;;;;;6.57;5.70;;;17.00;36.70;;;;;;10384687;28;20614;-71
2023/11/01 17:24:14;;;;;;;8.17;6.53;;;17.00;36.80;;;;;;10396688;28;20344;-70
2023/11/01 17:29:17;;;;;;;10.17;8.20;;;16.90;36.80;;;;;;10391995;28;20640;-70
2023/11/01 17:34:27;;;;;;;7.80;7.10;;;16.90;36.70;;;;;;10382835;28;20225;-70
2023/11/01 17:39:38;;;;;;;7.70;7.00;;;16.80;36.80;;;;;;10389124;28;20234;-70
2023/11/01 17:44:44;;;;;;;6.37;5.80;;;16.70;36.90;;;;;;10393943;28;20251;-70
2023/11/01 17:49:53;;;;;;;6.53;5.93;;;16.70;37.00;;;;;;10390033;28;20272;-70
2023/11/01 17:54:59;;;;;;;6.87;6.13;;;16.60;37.00;;;;;;10389360;28;20776;-70
2023/11/01 18:00:03;;;;;;;7.13;5.47;;;16.60;37.10;;;;;;10390700;28;20317;-71
2023/11/01 18:05:31;;;;;;;5.43;4.93;;;16.60;37.00;;;;;;10391992;28;20233;-71
2023/11/01 18:10:41;;;;;;;18.13;13.10;;;16.50;37.00;;;;;;10380339;28;20708;-70
2023/11/01 18:15:45;;;;;;;16.87;12.27;;;16.40;37.00;;;;;;10397305;28;20230;-70
2023/11/01 18:20:48;;;;;;;8.83;7.70;;;16.30;36.80;;;;;;10397710;28;20221;-70
2023/11/01 18:26:15;;;;;;;5.90;4.67;;;16.10;37.00;;;;;;10389450;28;20236;-70
2023/11/01 18:31:23;;;;;;;4.60;4.20;;;15.90;37.40;;;;;;10399608;28;20631;-70
2023/11/01 18:36:28;;;;;;;4.73;4.23;;;15.70;37.50;;;;;;10396224;28;20225;-70
2023/11/01 18:41:34;;;;;;;6.60;5.80;;;15.60;37.80;;;;;;10393894;28;20232;-70
2023/11/01 18:46:37;;;;;;;6.37;5.33;;;15.50;38.10;;;;;;10400086;28;20225;-70
2023/11/01 18:51:56;;;;;;;6.73;6.10;;;15.50;37.90;;;;;;10399517;28;20306;-70
2023/11/01 18:57:01;;;;;;;6.83;6.23;;;15.50;38.40;;;;;;10390424;28;20313;-70
2023/11/01 19:02:07;;;;;;;7.80;7.10;;;15.50;38.20;;;;;;10399451;28;20226;-70
2023/11/01 19:07:13;;;;;;;6.77;6.17;;;15.40;38.30;;;;;;10397722;28;20235;-70
2023/11/01 19:12:22;;;;;;;6.30;5.70;;;15.40;38.30;;;;;;10392367;28;20317;-70
2023/11/01 19:17:31;;;;;;;7.00;6.23;;;15.40;38.60;;;;;;10399681;28;20316;-70
2023/11/01 19:22:34;;;;;;;5.00;4.43;;;15.30;38.60;;;;;;10396210;28;20236;-70
2023/11/01 19:27:39;;;;;;;6.63;5.33;;;15.40;39.70;;;;;;10397196;28;20304;-70
2023/11/01 19:32:42;;;;;;;9.50;7.97;;;15.50;39.90;;;;;;10396488;28;20241;-69
2023/11/01 19:37:46;;;;;;;8.03;7.20;;;15.70;39.10;;;;;;10389591;28;20233;-70
2023/11/01 19:42:51;;;;;;;9.10;7.03;;;15.70;38.60;;;;;;10393172;28;20759;-70
2023/11/01 19:47:54;;;;;;;8.37;7.50;;;15.60;38.80;;;;;;10392641;28;20222;-70
2023/11/01 19:52:57;;;;;;;9.33;7.57;;;15.50;38.60;;;;;;10399472;28;20305;-69
2023/11/01 19:58:02;;;;;;;9.80;8.00;;;15.50;38.50;;;;;;10398118;28;20229;-70
2023/11/01 20:03:05;;;;;;;8.53;7.60;;;15.40;38.60;;;;;;10391786;28;20711;-70
2023/11/01 20:08:10;;;;;;;9.00;7.53;;;15.30;38.40;;;;;;10394399;28;20230;-69
2023/11/01 20:13:15;;;;;;;8.17;7.37;;;15.20;38.50;;;;;;10392015;28;20233;-70
2023/11/01 20:18:19;;;;;;;7.27;6.57;;;15.10;38.70;;;;;;10396584;28;20229;-70
2023/11/01 20:23:22;;;;;;;6.60;5.90;;;15.00;38.70;;;;;;10395492;28;20728;-70
2023/11/01 20:28:27;;;;;;;10.47;7.43;;;14.80;38.90;;;;;;10395681;28;20716;-70
2023/11/01 20:33:30;;;;;;;8.00;7.20;;;14.80;39.40;;;;;;10396903;28;20240;-70
2023/11/01 20:38:34;;;;;;;7.40;6.47;;;14.80;39.30;;;;;;10395876;28;20226;-70
2023/11/01 20:43:39;;;;;;;9.20;6.57;;;14.90;39.30;;;;;;10390435;28;20312;-69
2023/11/01 20:48:42;;;;;;;8.30;6.47;;;14.90;39.50;;;;;;10393636;28;20244;-70
2023/11/01 20:53:46;;;;;;;6.90;6.30;;;14.90;39.10;;;;;;10393059;28;20249;-70
2023/11/01 20:58:51;;;;;;;6.67;5.50;;;14.80;39.10;;;;;;10385315;28;20229;-70
2023/11/01 21:03:56;;;;;;;6.10;5.27;;;14.80;39.30;;;;;;10396153;28;20745;-70
2023/11/01 21:08:59;;;;;;;8.20;4.73;;;14.60;39.20;;;;;;10392729;28;20221;-70
2023/11/01 21:14:03;;;;;;;5.47;4.60;;;14.50;39.30;;;;;;10392352;28;20221;-70
2023/11/01 21:19:06;;;;;;;6.40;5.80;;;14.40;39.70;;;;;;10388063;28;20226;-71
2023/11/01 21:24:10;;;;;;;6.00;5.47;;;14.50;39.70;;;;;;10390775;28;20259;-71
2023/11/01 21:29:17;;;;;;;6.73;6.03;;;14.50;39.60;;;;;;10377171;28;20728;-71
2023/11/01 21:34:20;;;;;;;5.50;5.10;;;14.50;39.60;;;;;;10382056;28;20237;-71
2023/11/01 21:39:23;;;;;;;4.73;4.30;;;14.50;39.30;;;;;;10386387;28;20221;-71
2023/11/01 21:44:35;;;;;;;4.33;4.00;;;14.40;39.10;;;;;;10385849;28;20241;-71
2023/11/01 21:49:40;;;;;;;4.97;4.47;;;14.40;39.60;;;;;;10390397;28;20876;-70
2023/11/01 21:54:43;;;;;;;4.97;4.47;;;14.30;39.30;;;;;;10387148;28;20772;-70
2023/11/01 21:59:48;;;;;;;4.63;4.23;;;14.20;39.40;;;;;;10393209;28;20261;-71
2023/11/01 22:04:52;;;;;;;5.47;4.93;;;14.10;39.70;;;;;;10388306;28;20227;-71
2023/11/01 22:09:56;;;;;;;4.90;4.40;;;14.10;39.60;;;;;;10385823;28;20285;-70
2023/11/01 22:15:00;;;;;;;4.70;4.30;;;14.10;39.40;;;;;;10385237;28;20732;-71
2023/11/01 22:20:08;;;;;;;5.20;4.70;;;14.10;39.50;;;;;;10383617;28;20226;-71
2023/11/01 22:25:12;;;;;;;5.27;4.77;;;14.10;39.40;;;;;;10388732;28;20345;-71
2023/11/01 22:30:18;;;;;;;5.40;4.90;;;14.10;39.40;;;;;;10392225;28;20308;-71
2023/11/01 22:35:36;;;;;;;5.67;4.87;;;14.10;39.70;;;;;;10388883;28;20238;-71
2023/11/01 22:40:40;;;;;;;5.60;4.87;;;14.10;40.00;;;;;;10383501;28;20788;-71
2023/11/01 22:45:44;;;;;;;5.60;5.00;;;14.00;39.40;;;;;;10388409;28;20809;-71
2023/11/01 22:50:48;;;;;;;5.07;4.67;;;13.90;39.50;;;;;;10386005;28;20739;-71
2023/11/01 22:55:51;;;;;;;4.83;4.40;;;13.90;39.30;;;;;;10381286;28;20214;-71
2023/11/01 23:00:56;;;;;;;4.80;4.40;;;13.90;39.10;;;;;;10389832;28;20661;-70
2023/11/01 23:06:00;;;;;;;6.23;4.37;;;13.80;39.00;;;;;;10393917;28;20709;-71
2023/11/01 23:11:03;;;;;;;5.77;5.07;;;13.80;39.80;;;;;;10395391;28;20225;-71
2023/11/01 23:16:09;;;;;;;6.17;5.17;;;13.70;39.10;;;;;;10400939;28;20224;-71
2023/11/01 23:21:12;;;;;;;5.57;4.67;;;13.70;39.20;;;;;;10391539;28;20265;-70
2023/11/01 23:26:21;;;;;;;4.70;4.20;;;13.60;38.90;;;;;;10393789;28;20225;-71
2023/11/01 23:31:27;;;;;;;4.93;4.47;;;13.50;39.10;;;;;;10392690;28;20228;-71
2023/11/01 23:36:31;;;;;;;4.73;4.30;;;13.50;39.10;;;;;;10390150;28;20592;-71
2023/11/01 23:41:47;;;;;;;4.23;3.83;;;13.40;39.10;;;;;;10391466;28;20232;-71
2023/11/01 23:46:53;;;;;;;5.00;4.10;;;13.40;39.30;;;;;;10392388;28;20242;-71
2023/11/01 23:51:58;;;;;;;5.13;3.90;;;13.30;39.10;;;;;;10393611;28;20606;-71
2023/11/01 23:57:01;;;;;;;4.17;3.53;;;13.30;38.90;;;;;;10395586;28;20226;-70
